createdAt,value
2023-05-15T00:00:12.227Z,100.00
2023-05-15T00:02:41.322Z,100.00
2023-05-15T00:05:18.319Z,100.00
2023-05-15T00:07:47.099Z,100.00
2023-05-15T00:10:15.345Z,100.00
2023-05-15T00:12:45.214Z,100.00
2023-05-15T00:15:13.464Z,100.00
2023-05-15T00:17:41.849Z,100.00
2023-05-15T00:20:12.687Z,100.00
2023-05-15T00:22:41.228Z,100.00
2023-05-15T00:25:10.646Z,100.00
2023-05-15T00:27:41.063Z,100.00
2023-05-15T00:30:12.427Z,100.00
2023-05-15T00:32:41.137Z,100.00
2023-05-15T00:35:10.609Z,100.00
2023-05-15T00:37:41.283Z,100.00
2023-05-15T00:40:19.408Z,100.00
2023-05-15T00:42:51.739Z,100.00
2023-05-15T00:45:23.845Z,100.00
2023-05-15T00:47:54.525Z,100.00
2023-05-15T00:50:24.072Z,100.00
2023-05-15T00:52:55.411Z,100.00
2023-05-15T00:55:24.507Z,100.00
2023-05-15T00:57:54.935Z,100.00
2023-05-15T01:00:25.821Z,100.00
2023-05-15T01:02:55.530Z,100.00
2023-05-15T01:05:24.179Z,100.00
2023-05-15T01:07:58.956Z,100.00
2023-05-15T01:10:28.123Z,100.00
2023-05-15T01:12:58.760Z,100.00
2023-05-15T01:15:29.960Z,100.00
2023-05-15T01:17:58.967Z,100.00
2023-05-15T01:20:29.066Z,100.00
2023-05-15T01:23:11.637Z,100.00
2023-05-15T01:25:54.579Z,100.00
2023-05-15T01:28:37.927Z,100.00
2023-05-15T01:31:12.302Z,100.00
2023-05-15T01:36:37.569Z,100.00
2023-05-15T01:39:07.657Z,100.00
2023-05-15T01:41:44.041Z,100.00
2023-05-15T01:44:18.469Z,100.00
2023-05-15T01:46:50.299Z,100.00
2023-05-15T01:49:22.588Z,100.00
2023-05-15T01:51:55.919Z,100.00
2023-05-15T01:54:24.967Z,100.00
2023-05-15T01:56:54.897Z,100.00
2023-05-15T01:59:28.280Z,100.00
2023-05-15T02:02:00.918Z,100.00
2023-05-15T02:04:30.204Z,100.00
2023-05-15T02:06:58.762Z,100.00
2023-05-15T02:09:30.537Z,100.00
2023-05-15T02:14:44.915Z,100.00
2023-05-15T02:17:13.380Z,100.00
2023-05-15T02:19:41.789Z,100.00
2023-05-15T02:22:10.494Z,100.00
2023-05-15T02:24:39.023Z,100.00
2023-05-15T02:27:15.621Z,100.00
2023-05-15T02:30:02.901Z,100.00
2023-05-15T02:32:36.766Z,100.00
2023-05-15T02:35:17.890Z,100.00
2023-05-15T02:37:49.558Z,100.00
2023-05-15T02:40:18.759Z,100.00
2023-05-15T02:42:49.122Z,100.00
2023-05-15T02:45:20.647Z,100.00
2023-05-15T02:47:51.730Z,100.00
2023-05-15T02:50:20.897Z,100.00
2023-05-15T02:52:50.064Z,100.00
2023-05-15T02:55:18.968Z,100.00
2023-05-15T02:57:47.445Z,100.00
2023-05-15T03:00:18.200Z,100.00
2023-05-15T03:02:48.336Z,100.00
2023-05-15T03:05:16.817Z,100.00
2023-05-15T03:07:45.022Z,100.00
2023-05-15T03:10:13.311Z,100.00
2023-05-15T03:12:42.419Z,100.00
2023-05-15T03:15:11.727Z,100.00
2023-05-15T03:17:40.385Z,100.00
2023-05-15T03:20:11.655Z,100.00
2023-05-15T03:22:42.268Z,100.00
2023-05-15T03:25:12.269Z,100.00
2023-05-15T03:27:40.882Z,100.00
2023-05-15T03:30:10.702Z,100.00
2023-05-15T03:32:42.124Z,100.00
2023-05-15T03:35:14.861Z,100.00
2023-05-15T03:37:43.619Z,100.00
2023-05-15T03:40:13.481Z,100.00
2023-05-15T03:42:41.856Z,100.00
2023-05-15T03:45:11.353Z,100.00
2023-05-15T03:47:40.317Z,100.00
2023-05-15T03:50:09.204Z,100.00
2023-05-15T03:52:40.809Z,100.00
2023-05-15T03:55:10.962Z,100.00
2023-05-15T03:57:40.949Z,100.00
2023-05-15T04:00:11.245Z,100.00
2023-05-15T04:02:43.555Z,100.00
2023-05-15T04:05:12.771Z,100.00
2023-05-15T04:07:45.068Z,100.00
2023-05-15T04:10:13.776Z,100.00
2023-05-15T04:12:42.205Z,100.00
2023-05-15T04:15:18.197Z,100.00
2023-05-15T04:17:50.003Z,100.00
2023-05-15T04:20:20.583Z,100.00
2023-05-15T04:22:50.651Z,100.00
2023-05-15T04:25:20.432Z,100.00
2023-05-15T04:27:49.456Z,100.00
2023-05-15T04:30:18.540Z,100.00
2023-05-15T04:32:47.442Z,100.00
2023-05-15T04:35:16.521Z,100.00
2023-05-15T04:37:47.335Z,100.00
2023-05-15T04:40:17.095Z,100.00
2023-05-15T04:42:46.427Z,100.00
2023-05-15T04:45:15.312Z,100.00
2023-05-15T04:47:44.091Z,100.00
2023-05-15T04:50:12.550Z,100.00
2023-05-15T04:52:41.345Z,100.00
2023-05-15T04:55:10.888Z,100.00
2023-05-15T04:57:40.616Z,100.00
2023-05-15T05:00:12.784Z,100.00
2023-05-15T05:02:41.896Z,100.00
2023-05-15T05:05:10.576Z,100.00
2023-05-15T05:07:38.776Z,100.00
2023-05-15T05:10:08.904Z,100.00
2023-05-15T05:12:37.454Z,100.00
2023-05-15T05:15:11.509Z,100.00
2023-05-15T05:17:40.301Z,100.00
2023-05-15T05:20:12.952Z,100.00
2023-05-15T05:22:42.582Z,100.00
2023-05-15T05:25:11.323Z,100.00
2023-05-15T05:27:39.752Z,100.00
2023-05-15T05:30:11.018Z,100.00
2023-05-15T05:32:45.502Z,100.00
2023-05-15T05:35:14.106Z,100.00
2023-05-15T05:37:42.749Z,100.00
2023-05-15T05:40:11.875Z,100.00
2023-05-15T05:42:40.492Z,100.00
2023-05-15T05:45:11.527Z,100.00
2023-05-15T05:47:43.189Z,100.00
2023-05-15T05:50:12.007Z,100.00
2023-05-15T05:52:40.611Z,100.00
2023-05-15T05:55:09.668Z,100.00
2023-05-15T05:57:38.265Z,100.00
2023-05-15T06:00:09.580Z,100.00
2023-05-15T06:02:40.158Z,100.00
2023-05-15T06:05:09.276Z,100.00
2023-05-15T06:07:37.860Z,100.00
2023-05-15T06:10:07.664Z,100.00
2023-05-15T06:12:36.045Z,100.00
2023-05-15T06:15:04.379Z,100.00
2023-05-15T06:17:32.993Z,100.00
2023-05-15T06:20:07.559Z,100.00
2023-05-15T06:22:35.970Z,100.00
2023-05-15T06:25:05.285Z,100.00
2023-05-15T06:27:33.688Z,100.00
2023-05-15T06:30:02.336Z,100.00
2023-05-15T06:32:34.903Z,100.00
2023-05-15T06:35:08.412Z,100.00
2023-05-15T06:37:37.904Z,100.00
2023-05-15T06:40:07.086Z,100.00
2023-05-15T06:42:36.102Z,100.00
2023-05-15T06:45:04.748Z,100.00
2023-05-15T06:47:36.648Z,100.00
2023-05-15T06:50:07.021Z,100.00
2023-05-15T06:52:35.141Z,100.00
2023-05-15T06:55:03.583Z,100.00
2023-05-15T06:57:31.960Z,100.00
2023-05-15T07:00:00.367Z,100.00
2023-05-15T07:02:29.624Z,100.00
2023-05-15T07:04:57.815Z,100.00
2023-05-15T07:07:27.409Z,100.00
2023-05-15T07:09:55.617Z,100.00
2023-05-15T07:12:23.810Z,100.00
2023-05-15T07:14:52.724Z,100.00
2023-05-15T07:17:21.158Z,100.00
2023-05-15T07:19:49.443Z,100.00
2023-05-15T07:22:17.685Z,100.00
2023-05-15T07:24:50.902Z,98.11
2023-05-15T07:27:19.100Z,98.54
2023-05-15T07:29:47.303Z,98.11
2023-05-15T07:32:19.049Z,98.27
2023-05-15T07:34:47.184Z,97.64
2023-05-15T07:37:16.883Z,97.70
2023-05-15T07:39:46.996Z,97.62
2023-05-15T07:42:19.249Z,96.82
2023-05-15T07:44:49.481Z,97.25
2023-05-15T07:47:18.690Z,97.40
2023-05-15T07:49:49.397Z,96.15
2023-05-15T07:52:18.037Z,96.27
2023-05-15T07:54:48.112Z,95.49
2023-05-15T07:57:18.172Z,94.88
2023-05-15T07:59:46.720Z,94.35
2023-05-15T08:02:14.891Z,93.01
2023-05-15T08:04:43.466Z,91.65
2023-05-15T08:07:11.904Z,89.74
2023-05-15T08:09:40.114Z,89.47
2023-05-15T08:12:22.049Z,86.13
2023-05-15T08:14:51.153Z,85.04
2023-05-15T08:17:22.712Z,84.46
2023-05-15T08:19:51.145Z,83.65
2023-05-15T08:22:22.602Z,83.55
2023-05-15T08:24:50.841Z,81.77
2023-05-15T08:27:20.655Z,80.93
2023-05-15T08:29:48.922Z,80.98
2023-05-15T08:32:17.558Z,80.84
2023-05-15T08:34:46.025Z,81.49
2023-05-15T08:37:14.126Z,81.33
2023-05-15T08:39:42.633Z,80.67
2023-05-15T08:42:20.805Z,79.51
2023-05-15T08:44:51.746Z,79.41
2023-05-15T08:47:23.861Z,79.38
2023-05-15T08:50:01.838Z,77.65
2023-05-15T08:52:30.470Z,79.62
2023-05-15T08:55:00.461Z,80.28
2023-05-15T08:57:31.092Z,81.17
2023-05-15T09:00:01.682Z,80.40
2023-05-15T09:02:32.494Z,80.74
2023-05-15T09:05:00.804Z,81.14
2023-05-15T09:07:33.022Z,82.02
2023-05-15T09:10:03.398Z,81.53
2023-05-15T09:12:35.420Z,81.44
2023-05-15T09:15:12.771Z,80.11
2023-05-15T09:17:43.310Z,79.95
2023-05-15T09:20:27.875Z,80.30
2023-05-15T09:22:56.762Z,80.25
2023-05-15T09:25:36.001Z,80.10
2023-05-15T09:28:04.634Z,80.88
2023-05-15T09:30:39.415Z,80.69
2023-05-15T09:33:08.313Z,80.25
2023-05-15T09:35:37.872Z,79.42
2023-05-15T09:38:10.414Z,77.83
2023-05-15T09:40:40.862Z,78.07
2023-05-15T09:43:11.942Z,78.09
2023-05-15T09:45:41.895Z,78.68
2023-05-15T09:48:12.395Z,79.76
2023-05-15T09:50:41.119Z,79.86
2023-05-15T09:53:14.497Z,78.90
2023-05-15T09:55:45.726Z,79.35
2023-05-15T09:58:15.018Z,78.62
2023-05-15T10:00:48.214Z,78.26
2023-05-15T10:03:19.258Z,78.58
2023-05-15T10:05:47.987Z,78.57
2023-05-15T10:08:16.508Z,78.71
2023-05-15T10:10:44.832Z,78.47
2023-05-15T10:13:15.723Z,78.36
2023-05-15T10:15:49.990Z,78.55
2023-05-15T10:18:23.669Z,78.53
2023-05-15T10:20:51.965Z,77.83
2023-05-15T10:23:21.899Z,77.48
2023-05-15T10:25:57.151Z,78.09
2023-05-15T10:28:26.869Z,78.52
2023-05-15T10:31:03.182Z,79.22
2023-05-15T10:33:32.050Z,78.68
2023-05-15T10:36:00.877Z,77.77
2023-05-15T10:38:31.726Z,77.57
2023-05-15T10:41:15.798Z,78.37
2023-05-15T10:43:48.705Z,78.68
2023-05-15T10:46:19.059Z,78.75
2023-05-15T10:48:47.473Z,78.29
2023-05-15T10:51:20.090Z,77.27
2023-05-15T10:53:51.037Z,76.64
2023-05-15T10:56:19.792Z,76.51
2023-05-15T10:58:49.975Z,76.51
2023-05-15T11:01:32.508Z,76.06
2023-05-15T11:04:11.799Z,75.09
2023-05-15T11:06:42.645Z,74.23
2023-05-15T11:09:36.747Z,74.74
2023-05-15T11:12:06.881Z,75.27
2023-05-15T11:14:39.979Z,75.46
2023-05-15T11:17:11.001Z,77.04
2023-05-15T11:19:59.098Z,75.41
2023-05-15T11:22:33.695Z,76.15
2023-05-15T11:25:06.399Z,76.56
2023-05-15T11:27:41.491Z,76.00
2023-05-15T11:30:15.334Z,75.42
2023-05-15T11:32:55.602Z,75.79
2023-05-15T11:35:25.954Z,75.56
2023-05-15T11:37:55.802Z,75.61
2023-05-15T11:40:27.449Z,76.01
2023-05-15T11:43:06.863Z,76.80
2023-05-15T11:45:36.543Z,76.39
2023-05-15T11:48:08.541Z,76.53
2023-05-15T11:50:37.596Z,76.87
2023-05-15T11:53:07.815Z,76.48
2023-05-15T11:55:37.755Z,75.66
2023-05-15T11:58:07.407Z,75.46
2023-05-15T12:00:35.916Z,75.52
2023-05-15T12:03:06.060Z,75.72
2023-05-15T12:05:34.414Z,75.46
2023-05-15T12:08:05.175Z,75.42
2023-05-15T12:10:45.945Z,75.41
2023-05-15T12:13:15.655Z,74.26
2023-05-15T12:15:46.453Z,74.12
2023-05-15T12:18:16.058Z,73.58
2023-05-15T12:20:47.858Z,73.70
2023-05-15T12:23:18.040Z,73.94
2023-05-15T12:25:48.997Z,74.00
2023-05-15T12:28:18.605Z,74.08
2023-05-15T12:30:47.216Z,73.45
2023-05-15T12:33:17.001Z,72.97
2023-05-15T12:35:52.304Z,72.05
2023-05-15T12:38:25.192Z,70.77
2023-05-15T12:40:54.790Z,71.27
2023-05-15T12:43:25.959Z,71.72
2023-05-15T12:45:58.121Z,71.33
2023-05-15T12:48:37.452Z,70.90
2023-05-15T12:51:07.977Z,71.46
2023-05-15T12:53:39.317Z,71.20
2023-05-15T12:56:09.173Z,70.97
2023-05-15T12:58:38.543Z,71.06
2023-05-15T13:01:06.957Z,71.00
2023-05-15T13:03:37.672Z,71.39
2023-05-15T13:06:08.369Z,72.05
2023-05-15T13:08:41.924Z,70.88
2023-05-15T13:11:14.396Z,70.95
2023-05-15T13:13:50.292Z,70.78
2023-05-15T13:16:22.867Z,69.89
2023-05-15T13:18:53.092Z,70.38
2023-05-15T13:21:21.372Z,69.59
2023-05-15T13:23:49.885Z,69.03
2023-05-15T13:26:18.629Z,68.52
2023-05-15T13:28:47.032Z,68.12
2023-05-15T13:31:15.471Z,67.87
2023-05-15T13:33:44.145Z,68.74
2023-05-15T13:36:13.964Z,69.98
2023-05-15T13:38:42.279Z,69.42
2023-05-15T13:41:11.143Z,69.03
2023-05-15T13:43:39.568Z,69.90
2023-05-15T13:46:07.714Z,71.46
2023-05-15T13:48:36.296Z,71.79
2023-05-15T13:51:04.719Z,71.35
2023-05-15T13:53:34.562Z,71.09
2023-05-15T13:56:04.889Z,70.78
2023-05-15T13:58:33.568Z,70.32
2023-05-15T14:01:04.388Z,70.72
2023-05-15T14:03:35.965Z,70.74
2023-05-15T14:06:04.342Z,70.82
2023-05-15T14:08:35.581Z,71.13
2023-05-15T14:11:05.603Z,70.72
2023-05-15T14:13:35.158Z,70.42
2023-05-15T14:16:03.706Z,70.75
2023-05-15T14:18:32.220Z,71.00
2023-05-15T14:21:03.702Z,71.53
2023-05-15T14:23:32.242Z,71.63
2023-05-15T14:26:00.787Z,71.10
2023-05-15T14:28:30.608Z,71.92
2023-05-15T14:30:58.938Z,71.13
2023-05-15T14:33:28.264Z,70.91
2023-05-15T14:35:57.123Z,71.32
2023-05-15T14:38:25.538Z,72.27
2023-05-15T14:40:53.923Z,72.11
2023-05-15T14:43:25.231Z,72.51
2023-05-15T14:45:55.654Z,72.53
2023-05-15T14:48:23.776Z,72.10
2023-05-15T14:50:53.193Z,72.27
2023-05-15T14:53:21.828Z,72.07
2023-05-15T14:55:52.702Z,72.17
2023-05-15T14:58:21.514Z,72.73
2023-05-15T15:00:49.832Z,73.44
2023-05-15T15:03:22.134Z,73.03
2023-05-15T15:05:51.950Z,72.77
2023-05-15T15:08:21.213Z,72.32
2023-05-15T15:10:52.027Z,71.65
2023-05-15T15:13:20.611Z,71.87
2023-05-15T15:15:49.397Z,71.52
2023-05-15T15:18:18.804Z,71.39
2023-05-15T15:20:49.044Z,71.54
2023-05-15T15:23:20.836Z,71.65
2023-05-15T15:25:49.186Z,71.07
2023-05-15T15:28:17.734Z,71.12
2023-05-15T15:30:46.769Z,71.70
2023-05-15T15:33:17.926Z,72.24
2023-05-15T15:35:46.505Z,72.08
2023-05-15T15:38:16.400Z,72.27
2023-05-15T15:40:45.725Z,72.27
2023-05-15T15:43:16.617Z,72.16
2023-05-15T15:45:44.959Z,72.35
2023-05-15T15:48:15.698Z,72.23
2023-05-15T15:50:43.906Z,72.50
2023-05-15T15:53:12.330Z,72.67
2023-05-15T15:55:42.085Z,72.58
2023-05-15T15:58:10.264Z,72.65
2023-05-15T16:00:38.822Z,72.72
2023-05-15T16:03:07.389Z,81.25
2023-05-15T16:05:38.022Z,83.39
2023-05-15T16:08:07.204Z,85.78
2023-05-15T16:10:41.478Z,87.68
2023-05-15T16:13:11.940Z,90.74
2023-05-15T16:15:40.333Z,90.47
2023-05-15T16:18:08.496Z,90.70
2023-05-15T16:20:36.972Z,91.41
2023-05-15T16:23:05.760Z,91.54
2023-05-15T16:25:35.770Z,92.59
2023-05-15T16:28:04.112Z,92.68
2023-05-15T16:30:47.160Z,92.62
2023-05-15T16:33:18.195Z,93.14
2023-05-15T16:35:46.691Z,92.62
2023-05-15T16:38:16.348Z,93.29
2023-05-15T16:40:44.805Z,92.64
2023-05-15T16:43:13.104Z,93.83
2023-05-15T16:45:44.744Z,94.96
2023-05-15T16:48:13.268Z,94.54
2023-05-15T16:50:41.560Z,94.88
2023-05-15T16:53:10.204Z,95.17
2023-05-15T16:55:40.284Z,97.50
2023-05-15T16:58:08.968Z,98.11
2023-05-15T17:00:37.759Z,97.46
2023-05-15T17:03:12.708Z,98.29
2023-05-15T17:05:41.482Z,97.11
2023-05-15T17:08:09.815Z,96.19
2023-05-15T17:10:40.734Z,97.00
2023-05-15T17:13:09.111Z,97.18
2023-05-15T17:15:51.056Z,97.58
2023-05-15T17:18:21.557Z,97.91
2023-05-15T17:20:52.134Z,100.00
2023-05-15T17:23:22.375Z,100.00
2023-05-15T17:25:54.379Z,100.00
2023-05-15T17:28:22.480Z,100.00
2023-05-15T17:30:51.113Z,100.00
2023-05-15T17:33:21.697Z,100.00
2023-05-15T17:35:49.845Z,100.00
2023-05-15T17:38:18.497Z,100.00
2023-05-15T17:40:46.784Z,100.00
2023-05-15T17:43:14.969Z,100.00
2023-05-15T17:45:43.381Z,100.00
2023-05-15T17:48:12.418Z,100.00
2023-05-15T17:50:43.837Z,100.00
2023-05-15T17:53:15.676Z,100.00
2023-05-15T17:55:44.907Z,100.00
2023-05-15T17:58:13.565Z,100.00
2023-05-15T18:00:45.742Z,100.00
2023-05-15T18:03:17.285Z,100.00
2023-05-15T18:05:48.221Z,100.00
2023-05-15T18:08:16.659Z,100.00
2023-05-15T18:10:49.873Z,100.00
2023-05-15T18:13:18.869Z,100.00
2023-05-15T18:15:57.075Z,100.00
2023-05-15T18:18:51.606Z,100.00
2023-05-15T18:21:22.031Z,100.00
2023-05-15T18:23:50.339Z,100.00
2023-05-15T18:26:18.948Z,100.00
2023-05-15T18:28:47.680Z,100.00
2023-05-15T18:31:16.179Z,100.00
2023-05-15T18:33:45.276Z,100.00
2023-05-15T18:36:13.653Z,100.00
2023-05-15T18:38:43.529Z,100.00
2023-05-15T18:41:12.050Z,100.00
2023-05-15T18:43:40.549Z,100.00
2023-05-15T18:46:08.812Z,100.00
2023-05-15T18:48:37.000Z,100.00
2023-05-15T18:51:05.366Z,100.00
2023-05-15T18:53:34.391Z,100.00
2023-05-15T18:56:04.869Z,100.00
2023-05-15T18:58:33.950Z,100.00
2023-05-15T19:01:04.478Z,100.00
2023-05-15T19:03:34.249Z,100.00
2023-05-15T19:06:03.700Z,100.00
2023-05-15T19:08:31.913Z,100.00
2023-05-15T19:11:01.701Z,100.00
2023-05-15T19:13:34.451Z,100.00
2023-05-15T19:16:04.759Z,100.00
2023-05-15T19:18:33.472Z,100.00
2023-05-15T19:21:02.054Z,100.00
2023-05-15T19:23:30.829Z,100.00
2023-05-15T19:25:59.091Z,100.00
2023-05-15T19:28:27.306Z,100.00
2023-05-15T19:30:59.701Z,100.00
2023-05-15T19:33:27.827Z,100.00
2023-05-15T19:35:56.502Z,100.00
2023-05-15T19:38:24.808Z,100.00
2023-05-15T19:40:53.184Z,100.00
2023-05-15T19:43:21.610Z,100.00
2023-05-15T19:45:49.933Z,100.00
2023-05-15T19:48:19.590Z,100.00
2023-05-15T19:50:48.267Z,100.00
2023-05-15T19:53:16.703Z,100.00
2023-05-15T19:55:45.632Z,100.00
2023-05-15T19:58:22.116Z,100.00
2023-05-15T20:00:52.772Z,100.00
2023-05-15T20:03:22.945Z,100.00
2023-05-15T20:05:52.214Z,100.00
2023-05-15T20:08:20.349Z,100.00
2023-05-15T20:10:52.371Z,100.00
2023-05-15T20:13:21.401Z,100.00
2023-05-15T20:15:55.143Z,100.00
2023-05-15T20:18:25.085Z,100.00
2023-05-15T20:20:53.981Z,100.00
2023-05-15T20:23:22.437Z,100.00
2023-05-15T20:25:52.364Z,100.00
2023-05-15T20:28:22.082Z,100.00
2023-05-15T20:30:51.659Z,100.00
2023-05-15T20:33:24.356Z,100.00
2023-05-15T20:35:54.198Z,100.00
2023-05-15T20:38:24.550Z,100.00
2023-05-15T20:40:53.004Z,100.00
2023-05-15T20:43:21.379Z,100.00
2023-05-15T20:45:49.827Z,100.00
2023-05-15T20:48:18.740Z,100.00
2023-05-15T20:50:48.444Z,100.00
2023-05-15T20:53:16.600Z,100.00
2023-05-15T20:55:45.071Z,100.00
2023-05-15T20:58:13.510Z,100.00
2023-05-15T21:00:42.292Z,100.00
2023-05-15T21:03:13.615Z,100.00
2023-05-15T21:05:42.419Z,100.00
2023-05-15T21:08:15.107Z,100.00
2023-05-15T21:10:43.255Z,100.00
2023-05-15T21:13:14.209Z,100.00
2023-05-15T21:15:43.113Z,100.00
2023-05-15T21:18:11.972Z,100.00
2023-05-15T21:20:41.951Z,100.00
2023-05-15T21:23:14.876Z,100.00
2023-05-15T21:25:44.435Z,100.00
2023-05-15T21:28:16.197Z,100.00
2023-05-15T21:30:44.866Z,100.00
2023-05-15T21:33:21.361Z,100.00
2023-05-15T21:35:49.883Z,100.00
2023-05-15T21:38:19.964Z,100.00
2023-05-15T21:40:48.453Z,100.00
2023-05-15T21:43:16.614Z,100.00
2023-05-15T21:45:45.075Z,100.00
2023-05-15T21:48:14.304Z,100.00
2023-05-15T21:50:42.592Z,100.00
2023-05-15T21:53:10.734Z,100.00
2023-05-15T21:55:40.440Z,100.00
2023-05-15T21:58:08.705Z,100.00
2023-05-15T22:00:37.270Z,100.00
2023-05-15T22:03:05.706Z,100.00
2023-05-15T22:05:34.625Z,100.00
2023-05-15T22:08:03.305Z,100.00
2023-05-15T22:10:32.122Z,100.00
2023-05-15T22:13:02.957Z,100.00
2023-05-15T22:15:34.045Z,100.00
2023-05-15T22:18:05.671Z,100.00
2023-05-15T22:20:34.147Z,100.00
2023-05-15T22:23:05.477Z,100.00
2023-05-15T22:25:33.706Z,100.00
2023-05-15T22:28:03.498Z,100.00
2023-05-15T22:30:31.687Z,100.00
2023-05-15T22:33:00.309Z,100.00
2023-05-15T22:35:28.933Z,100.00
2023-05-15T22:37:57.620Z,100.00
2023-05-15T22:40:26.530Z,100.00
2023-05-15T22:42:54.815Z,100.00
2023-05-15T22:45:24.469Z,100.00
2023-05-15T22:47:53.235Z,100.00
2023-05-15T22:50:21.405Z,100.00
2023-05-15T22:52:49.543Z,100.00
2023-05-15T22:55:17.856Z,100.00
2023-05-15T22:57:46.469Z,100.00
2023-05-15T23:00:15.697Z,100.00
2023-05-15T23:02:45.402Z,100.00
2023-05-15T23:05:13.924Z,100.00
2023-05-15T23:07:43.135Z,100.00
2023-05-15T23:10:11.843Z,100.00
2023-05-15T23:12:40.753Z,100.00
2023-05-15T23:15:11.648Z,100.00
2023-05-15T23:17:40.591Z,100.00
2023-05-15T23:20:12.931Z,100.00
2023-05-15T23:22:41.170Z,100.00
2023-05-15T23:25:10.873Z,100.00
2023-05-15T23:27:39.972Z,100.00
2023-05-15T23:30:09.896Z,100.00
2023-05-15T23:32:38.554Z,100.00
2023-05-15T23:35:07.778Z,100.00
2023-05-15T23:37:37.640Z,100.00
2023-05-15T23:40:06.638Z,100.00
2023-05-15T23:42:34.979Z,100.00
2023-05-15T23:45:03.340Z,100.00
2023-05-15T23:47:32.038Z,100.00
2023-05-15T23:50:01.763Z,100.00
2023-05-15T23:52:31.044Z,100.00
2023-05-15T23:55:01.430Z,100.00
2023-05-15T23:57:31.327Z,100.00
2023-05-15T23:59:59.963Z,100.00
